Time;durP1;ratioP1;P1;durP2;ratioP2;P2;SDS_P1;SDS_P2;PMS_P1;PMS_P2;Temp;Humidity;BMP_temperature;BMP_pressure;BME280_temperature;BME280_humidity;BME280_pressure;Samples;Min_cycle;Max_cycle;Signal;HPM_P1;HPM_P2
2022/06/09 00:01:22;;;;;;;0.50;0.50;;;26.20;44.00;;;;;;5136701;27;20459;-64
2022/06/09 00:03:58;;;;;;;0.50;0.50;;;26.20;45.90;;;;;;5143038;27;20472;-64
2022/06/09 00:06:34;;;;;;;0.80;0.60;;;26.20;44.20;;;;;;5125359;28;20469;-64
2022/06/09 00:09:06;;;;;;;0.70;0.60;;;26.00;45.80;;;;;;5144795;27;20566;-64
2022/06/09 00:11:42;;;;;;;0.40;0.40;;;26.10;47.60;;;;;;5144977;27;20459;-65
2022/06/09 00:14:13;;;;;;;0.50;0.50;;;26.00;46.50;;;;;;5142922;27;20454;-65
2022/06/09 00:16:45;;;;;;;0.50;0.50;;;25.90;46.40;;;;;;5155785;27;20503;-64
2022/06/09 00:19:18;;;;;;;0.50;0.50;;;26.00;46.40;;;;;;5138307;27;20552;-64
2022/06/09 00:21:50;;;;;;;0.63;0.57;;;25.90;46.30;;;;;;5142947;27;20833;-64
2022/06/09 00:24:21;;;;;;;0.50;0.50;;;25.70;46.70;;;;;;5154230;27;20473;-64
2022/06/09 00:26:53;;;;;;;0.83;0.63;;;25.60;47.10;;;;;;5145692;27;20450;-63
2022/06/09 00:29:24;;;;;;;0.90;0.60;;;25.60;47.50;;;;;;5143953;27;20455;-64
2022/06/09 00:31:55;;;;;;;0.83;0.70;;;25.80;47.90;;;;;;5144938;27;20450;-65
2022/06/09 00:34:26;;;;;;;0.50;0.30;;;25.80;49.70;;;;;;5144732;27;20492;-63
2022/06/09 00:36:56;;;;;;;0.63;0.40;;;25.90;47.60;;;;;;5137757;27;20470;-63
2022/06/09 00:39:27;;;;;;;0.40;0.30;;;25.90;49.40;;;;;;5143787;27;20504;-64
2022/06/09 00:42:01;;;;;;;0.40;0.30;;;25.80;47.90;;;;;;5141741;27;20455;-64
2022/06/09 00:44:32;;;;;;;1.80;0.70;;;25.80;48.90;;;;;;5143987;27;20794;-64
2022/06/09 00:47:07;;;;;;;0.50;0.50;;;25.80;49.10;;;;;;5142129;27;20454;-64
2022/06/09 00:49:44;;;;;;;0.40;0.40;;;25.80;48.70;;;;;;5137166;27;20576;-64
2022/06/09 00:52:19;;;;;;;0.57;0.57;;;25.80;47.20;;;;;;5137956;27;20465;-65
2022/06/09 00:54:53;;;;;;;1.03;0.50;;;25.60;48.60;;;;;;5137355;27;20454;-63
2022/06/09 00:57:29;;;;;;;0.70;0.50;;;25.40;47.60;;;;;;5140841;27;20462;-64
2022/06/09 01:00:05;;;;;;;0.60;0.40;;;25.10;47.30;;;;;;5139049;27;20567;-64
2022/06/09 01:02:36;;;;;;;0.50;0.50;;;24.90;48.70;;;;;;5137380;27;20445;-64
2022/06/09 01:05:09;;;;;;;1.60;0.57;;;25.00;49.30;;;;;;5139471;27;20461;-65
2022/06/09 01:07:42;;;;;;;0.70;0.70;;;24.80;50.20;;;;;;5144606;27;20453;-64
2022/06/09 01:10:14;;;;;;;0.83;0.60;;;24.80;51.50;;;;;;5136244;27;20526;-64
2022/06/09 01:12:48;;;;;;;0.70;0.70;;;24.70;51.20;;;;;;5142148;27;20468;-64
2022/06/09 01:15:31;;;;;;;0.50;0.50;;;24.70;50.10;;;;;;5142046;27;20453;-64
2022/06/09 01:18:11;;;;;;;0.80;0.70;;;24.50;50.00;;;;;;5143029;27;20815;-63
2022/06/09 01:20:47;;;;;;;0.97;0.57;;;24.30;52.00;;;;;;5143261;27;20491;-64
2022/06/09 01:23:44;;;;;;;0.40;0.40;;;24.40;51.40;;;;;;5140281;27;20570;-62
2022/06/09 01:27:01;;;;;;;0.60;0.60;;;24.30;51.30;;;;;;5133724;27;20468;-62
2022/06/09 01:29:55;;;;;;;0.70;0.70;;;24.50;51.80;;;;;;5043947;28;20472;-63
2022/06/09 01:32:33;;;;;;;0.60;0.50;;;24.40;51.50;;;;;;5057622;28;20495;-64
2022/06/09 01:35:19;;;;;;;1.90;0.83;;;24.50;51.70;;;;;;5049276;28;20935;-62
2022/06/09 01:37:53;;;;;;;0.43;0.40;;;24.60;52.50;;;;;;5052874;28;20459;-63
2022/06/09 01:40:24;;;;;;;0.70;0.67;;;24.70;52.80;;;;;;5051448;28;20535;-63
2022/06/09 01:42:57;;;;;;;0.50;0.50;;;24.70;53.30;;;;;;5056719;28;20484;-63
2022/06/09 01:45:38;;;;;;;0.60;0.50;;;24.80;52.10;;;;;;5058760;28;20453;-64
2022/06/09 01:48:13;;;;;;;0.80;0.80;;;24.70;52.90;;;;;;5058443;28;20436;-63
2022/06/09 01:50:48;;;;;;;0.73;0.60;;;24.60;52.70;;;;;;5055707;28;20853;-63
2022/06/09 01:53:22;;;;;;;1.80;0.60;;;24.50;55.20;;;;;;5057555;28;20491;-66
2022/06/09 01:55:57;;;;;;;0.63;0.63;;;24.30;53.40;;;;;;5050395;28;20447;-64
2022/06/09 01:58:33;;;;;;;0.87;0.63;;;24.20;53.70;;;;;;5056821;28;20483;-64
2022/06/09 02:01:05;;;;;;;0.63;0.57;;;24.00;53.40;;;;;;5057632;28;20488;-64
2022/06/09 02:03:41;;;;;;;0.57;0.53;;;23.80;53.40;;;;;;5055910;28;21167;-64
2022/06/09 02:06:13;;;;;;;1.10;0.80;;;23.80;54.70;;;;;;5134590;27;20453;-64
2022/06/09 02:08:45;;;;;;;0.40;0.40;;;23.70;53.80;;;;;;5142470;27;20524;-64
2022/06/09 02:11:16;;;;;;;2.67;0.73;;;23.50;54.20;;;;;;5139503;27;20464;-65
2022/06/09 02:13:51;;;;;;;4.40;2.33;;;23.50;54.70;;;;;;5142901;27;20444;-65
2022/06/09 02:16:23;;;;;;;2.03;1.20;;;23.50;55.80;;;;;;5147978;27;20532;-64
2022/06/09 02:18:57;;;;;;;1.93;1.83;;;23.50;56.80;;;;;;5136552;27;20454;-65
2022/06/09 02:21:32;;;;;;;1.10;1.00;;;23.40;58.00;;;;;;5135123;27;20806;-65
2022/06/09 02:24:03;;;;;;;0.70;0.70;;;23.30;57.80;;;;;;5131654;27;20470;-65
2022/06/09 02:26:34;;;;;;;0.93;0.70;;;23.30;56.60;;;;;;5132590;27;20460;-65
2022/06/09 02:29:05;;;;;;;0.87;0.80;;;23.40;60.40;;;;;;5135916;27;20446;-64
2022/06/09 02:31:36;;;;;;;0.90;0.60;;;23.30;55.80;;;;;;5142534;27;20461;-65
2022/06/09 02:34:09;;;;;;;1.37;0.60;;;23.40;56.40;;;;;;5135609;27;20480;-67
2022/06/09 02:36:42;;;;;;;0.50;0.50;;;23.30;56.40;;;;;;5137531;27;20545;-67
2022/06/09 02:39:13;;;;;;;0.90;0.70;;;23.30;57.30;;;;;;5137537;27;20449;-66
2022/06/09 02:41:44;;;;;;;1.77;0.80;;;23.30;57.60;;;;;;5139093;27;20463;-66
2022/06/09 02:44:15;;;;;;;0.60;0.60;;;23.20;57.30;;;;;;5141179;28;20445;-66
2022/06/09 02:46:46;;;;;;;4.93;4.43;;;23.00;59.90;;;;;;5142338;27;20460;-66
2022/06/09 02:49:19;;;;;;;1.40;0.90;;;22.80;62.30;;;;;;5142084;27;20518;-66
2022/06/09 02:51:49;;;;;;;0.50;0.50;;;22.70;62.20;;;;;;5141822;27;20520;-66
2022/06/09 02:54:21;;;;;;;0.83;0.53;;;22.50;62.00;;;;;;5141505;28;20456;-65
2022/06/09 02:56:53;;;;;;;1.40;0.90;;;22.50;61.80;;;;;;5142753;27;20520;-67
2022/06/09 02:59:24;;;;;;;1.00;0.83;;;22.50;61.50;;;;;;5132033;28;20468;-66
2022/06/09 03:01:55;;;;;;;0.60;0.60;;;22.30;65.50;;;;;;5130758;28;20466;-67
2022/06/09 03:04:27;;;;;;;0.70;0.50;;;22.00;66.70;;;;;;5142554;27;20447;-67
2022/06/09 03:06:58;;;;;;;0.80;0.60;;;21.90;64.80;;;;;;5142885;27;20423;-67
2022/06/09 03:09:29;;;;;;;0.80;0.50;;;21.90;65.20;;;;;;5140348;27;20460;-67
2022/06/09 03:12:00;;;;;;;1.37;0.67;;;21.80;65.90;;;;;;5136094;27;20876;-66
2022/06/09 03:14:31;;;;;;;0.60;0.60;;;21.80;65.70;;;;;;5141240;27;20452;-65
2022/06/09 03:17:01;;;;;;;1.07;0.50;;;21.70;66.60;;;;;;5140230;27;20459;-65
2022/06/09 03:19:34;;;;;;;0.70;0.60;;;21.70;66.40;;;;;;5143787;27;20429;-66
2022/06/09 03:22:05;;;;;;;0.87;0.60;;;21.60;67.30;;;;;;5144277;27;20441;-65
2022/06/09 03:24:37;;;;;;;0.80;0.80;;;21.60;67.10;;;;;;5139241;27;20460;-66
2022/06/09 03:27:08;;;;;;;0.87;0.87;;;21.60;68.40;;;;;;5146054;27;20471;-66
2022/06/09 03:29:38;;;;;;;1.40;1.07;;;21.50;70.40;;;;;;5145265;27;20423;-66
2022/06/09 03:32:10;;;;;;;0.80;0.80;;;21.50;68.20;;;;;;5144846;27;20422;-67
2022/06/09 03:34:42;;;;;;;1.57;0.90;;;21.40;70.90;;;;;;5143741;27;20481;-66
2022/06/09 03:37:13;;;;;;;1.57;0.80;;;21.20;75.90;;;;;;5139197;27;20474;-65
2022/06/09 03:39:43;;;;;;;1.47;1.03;;;21.10;79.50;;;;;;5136731;27;20606;-65
2022/06/09 03:42:14;;;;;;;0.90;0.80;;;20.90;81.10;;;;;;5144877;27;20460;-66
2022/06/09 03:44:46;;;;;;;1.53;1.10;;;20.80;82.60;;;;;;5138022;27;20449;-65
2022/06/09 03:47:16;;;;;;;2.57;0.97;;;20.70;83.80;;;;;;5146657;27;20418;-65
2022/06/09 03:49:49;;;;;;;1.50;1.07;;;20.50;84.00;;;;;;5142894;27;20441;-66
2022/06/09 03:52:20;;;;;;;1.60;1.10;;;20.40;84.70;;;;;;5143671;27;20483;-65
2022/06/09 03:54:50;;;;;;;1.07;0.70;;;20.30;83.90;;;;;;5144562;27;20502;-64
2022/06/09 03:57:24;;;;;;;0.80;0.80;;;20.10;85.80;;;;;;5145419;27;20444;-65
2022/06/09 03:59:55;;;;;;;1.10;1.00;;;20.00;86.00;;;;;;5142611;27;20449;-65
2022/06/09 04:02:26;;;;;;;1.03;0.80;;;20.00;85.80;;;;;;5145250;27;20447;-65
2022/06/09 04:04:59;;;;;;;2.10;1.13;;;19.80;86.30;;;;;;5144867;27;20519;-65
2022/06/09 04:07:32;;;;;;;2.40;0.77;;;19.70;87.10;;;;;;5140041;27;20432;-64
2022/06/09 04:10:05;;;;;;;0.60;0.60;;;19.70;88.50;;;;;;5142951;27;20822;-65
2022/06/09 04:12:36;;;;;;;1.80;1.00;;;19.60;89.20;;;;;;5145380;27;20467;-65
2022/06/09 04:15:08;;;;;;;0.97;0.97;;;19.50;90.70;;;;;;5144232;27;21382;-65
2022/06/09 04:17:38;;;;;;;2.67;1.30;;;19.40;91.00;;;;;;5141935;27;20455;-63
2022/06/09 04:20:12;;;;;;;3.00;0.93;;;19.40;91.40;;;;;;5145097;27;20607;-64
2022/06/09 04:22:45;;;;;;;1.57;0.93;;;19.40;91.60;;;;;;5142144;27;20476;-64
2022/06/09 04:25:19;;;;;;;1.97;1.00;;;19.30;90.70;;;;;;5143963;27;20443;-64
2022/06/09 04:27:50;;;;;;;1.83;0.83;;;19.30;91.20;;;;;;5148090;27;20864;-64
2022/06/09 04:30:22;;;;;;;2.20;1.07;;;19.20;92.00;;;;;;5141294;27;20518;-64
2022/06/09 04:32:57;;;;;;;0.90;0.90;;;19.20;91.60;;;;;;5145246;27;20429;-64
2022/06/09 04:35:33;;;;;;;2.63;1.00;;;19.20;91.60;;;;;;5143322;27;20503;-64
2022/06/09 04:38:07;;;;;;;2.20;1.23;;;19.20;91.70;;;;;;5139656;27;20435;-64
2022/06/09 04:40:39;;;;;;;1.03;0.90;;;19.10;92.10;;;;;;5139701;27;20913;-64
2022/06/09 04:43:14;;;;;;;1.27;0.90;;;19.10;92.80;;;;;;5132999;27;20438;-65
2022/06/09 04:45:50;;;;;;;1.53;1.20;;;19.10;94.20;;;;;;5140390;27;20584;-65
2022/06/09 04:48:24;;;;;;;1.10;1.00;;;19.00;93.90;;;;;;5138292;27;20426;-65
2022/06/09 04:50:57;;;;;;;1.40;1.30;;;19.00;94.00;;;;;;5143300;27;20448;-65
2022/06/09 04:53:28;;;;;;;1.83;1.30;;;18.90;95.10;;;;;;5141953;27;20483;-65
2022/06/09 04:55:59;;;;;;;2.70;1.20;;;18.80;94.70;;;;;;5142566;27;20452;-65
2022/06/09 04:58:29;;;;;;;2.00;1.17;;;18.80;95.30;;;;;;5136916;27;20428;-65
2022/06/09 05:01:00;;;;;;;1.40;1.10;;;18.80;96.00;;;;;;5139236;27;20592;-65
2022/06/09 05:03:32;;;;;;;1.30;1.17;;;18.70;96.90;;;;;;5141328;27;20454;-65
2022/06/09 05:06:05;;;;;;;1.17;0.97;;;18.70;96.10;;;;;;5143903;27;20465;-65
2022/06/09 05:08:36;;;;;;;1.60;1.33;;;18.70;95.30;;;;;;5144455;27;20783;-66
2022/06/09 05:11:06;;;;;;;1.30;1.00;;;18.70;96.80;;;;;;5143452;27;20449;-65
2022/06/09 05:13:37;;;;;;;1.30;0.90;;;18.60;96.90;;;;;;5142453;27;20420;-65
2022/06/09 05:16:09;;;;;;;1.50;1.40;;;18.60;97.50;;;;;;5137653;27;20439;-65
2022/06/09 05:18:41;;;;;;;3.10;1.30;;;18.50;96.00;;;;;;5144841;27;20441;-64
2022/06/09 05:21:13;;;;;;;2.80;1.37;;;18.50;97.60;;;;;;5128552;27;20491;-65
2022/06/09 05:23:44;;;;;;;0.77;0.77;;;18.40;97.30;;;;;;5143153;27;20561;-65
2022/06/09 05:26:17;;;;;;;0.97;0.80;;;18.40;98.10;;;;;;5136335;27;20985;-65
2022/06/09 05:28:47;;;;;;;1.73;1.20;;;18.40;97.20;;;;;;5137283;27;20773;-65
2022/06/09 05:31:18;;;;;;;2.40;0.97;;;18.40;96.40;;;;;;5143569;27;20435;-65
2022/06/09 05:33:49;;;;;;;1.93;1.10;;;18.40;96.20;;;;;;5137740;27;20474;-64
2022/06/09 05:36:21;;;;;;;1.10;1.00;;;18.40;95.50;;;;;;5142347;27;20533;-65
2022/06/09 05:47:29;;;;;;;1.90;1.10;;;18.20;97.80;;;;;;5051226;28;20449;-65
2022/06/09 05:50:00;;;;;;;1.33;1.10;;;18.10;97.30;;;;;;5047557;28;20465;-64
2022/06/09 05:52:32;;;;;;;1.30;1.20;;;18.10;96.30;;;;;;5040044;28;20420;-64
2022/06/09 05:55:04;;;;;;;5.30;1.70;;;18.00;96.80;;;;;;5040969;28;20468;-64
2022/06/09 05:57:40;;;;;;;2.37;1.70;;;18.00;96.10;;;;;;5051249;28;20483;-64
2022/06/09 06:00:15;;;;;;;1.20;1.10;;;18.00;96.60;;;;;;5056165;28;20555;-64
2022/06/09 06:02:47;;;;;;;1.40;1.20;;;18.00;96.80;;;;;;5051949;28;20473;-64
2022/06/09 06:08:03;;;;;;;2.03;1.30;;;17.90;97.40;;;;;;5042486;28;20843;-64
2022/06/09 06:10:34;;;;;;;2.30;1.13;;;17.90;97.60;;;;;;5038682;28;20452;-64
2022/06/09 06:13:05;;;;;;;1.80;1.03;;;17.90;96.10;;;;;;5050071;28;20428;-64
2022/06/09 06:15:37;;;;;;;3.57;1.57;;;18.00;95.70;;;;;;5057816;28;20431;-64
2022/06/09 06:18:08;;;;;;;0.80;0.80;;;17.90;95.60;;;;;;5049998;28;20806;-64
2022/06/09 06:20:39;;;;;;;1.00;0.90;;;17.90;95.40;;;;;;5056429;28;20456;-64
2022/06/09 06:23:11;;;;;;;1.10;1.00;;;17.90;95.70;;;;;;5139261;27;20604;-64
2022/06/09 06:25:42;;;;;;;3.77;1.00;;;17.90;95.50;;;;;;5142943;27;20471;-64
2022/06/09 06:28:13;;;;;;;4.40;1.23;;;17.80;95.10;;;;;;5143032;27;20532;-64
2022/06/09 06:30:44;;;;;;;1.97;1.03;;;17.80;95.80;;;;;;5143301;27;20461;-64
2022/06/09 06:33:14;;;;;;;1.63;0.80;;;17.70;95.20;;;;;;5140877;27;20472;-64
2022/06/09 06:35:45;;;;;;;1.20;1.00;;;17.80;96.00;;;;;;5142805;27;20452;-64
2022/06/09 06:38:18;;;;;;;1.20;1.10;;;17.80;95.50;;;;;;5140663;28;20451;-64
2022/06/09 06:40:51;;;;;;;2.30;1.10;;;17.70;95.60;;;;;;5142430;27;20446;-65
2022/06/09 06:43:22;;;;;;;3.80;1.30;;;17.80;96.50;;;;;;5141473;27;20537;-64
2022/06/09 06:45:58;;;;;;;2.17;1.40;;;17.80;96.00;;;;;;5145275;27;20439;-64
2022/06/09 06:48:30;;;;;;;1.30;1.20;;;17.70;95.80;;;;;;5146818;27;20463;-64
2022/06/09 06:51:01;;;;;;;1.60;0.70;;;17.70;96.00;;;;;;5147308;27;20470;-65
2022/06/09 06:53:33;;;;;;;1.23;1.13;;;17.70;96.00;;;;;;5134810;27;20458;-64
2022/06/09 06:56:07;;;;;;;1.70;1.03;;;17.80;95.80;;;;;;5135540;27;20453;-65
2022/06/09 06:58:38;;;;;;;1.83;1.00;;;17.80;95.00;;;;;;5139632;27;20452;-65
2022/06/09 07:01:12;;;;;;;1.30;0.90;;;17.70;95.80;;;;;;5144068;27;20431;-65
2022/06/09 07:03:43;;;;;;;2.43;1.20;;;17.80;95.50;;;;;;5130934;27;20472;-64
2022/06/09 07:06:18;;;;;;;3.90;1.10;;;17.70;95.20;;;;;;5145452;27;20483;-65
2022/06/09 07:08:50;;;;;;;2.30;0.73;;;17.70;95.20;;;;;;5142363;27;20458;-65
2022/06/09 07:11:21;;;;;;;1.83;1.03;;;17.60;95.30;;;;;;5147194;27;20425;-65
2022/06/09 07:13:52;;;;;;;0.87;0.83;;;17.60;96.20;;;;;;5146492;27;20453;-64
2022/06/09 07:16:23;;;;;;;1.70;1.00;;;17.50;95.90;;;;;;5142410;27;20436;-64
2022/06/09 07:19:13;;;;;;;2.40;1.00;;;17.50;95.60;;;;;;5133546;27;20432;-65
2022/06/09 07:21:44;;;;;;;0.80;0.67;;;17.50;96.80;;;;;;5146063;27;20456;-65
2022/06/09 07:24:16;;;;;;;1.50;1.00;;;17.40;99.00;;;;;;5132836;27;20487;-64
2022/06/09 07:26:47;;;;;;;1.97;1.10;;;17.30;97.60;;;;;;5132439;27;20453;-65
2022/06/09 07:29:18;;;;;;;3.40;1.30;;;17.20;97.70;;;;;;5142961;27;20816;-64
2022/06/09 07:31:49;;;;;;;1.87;1.20;;;17.20;98.60;;;;;;5144879;27;20462;-65
2022/06/09 07:34:20;;;;;;;1.50;1.30;;;17.20;99.90;;;;;;5135844;27;20546;-64
2022/06/09 07:36:51;;;;;;;0.83;0.80;;;17.10;99.30;;;;;;5136826;27;20988;-64
2022/06/09 07:39:24;;;;;;;1.47;0.83;;;17.10;98.10;;;;;;5142936;27;20436;-64
2022/06/09 07:41:58;;;;;;;1.97;0.80;;;17.00;97.90;;;;;;5136987;27;20432;-64
2022/06/09 07:44:28;;;;;;;1.50;0.90;;;16.90;97.70;;;;;;5141029;27;20459;-64
2022/06/09 07:46:59;;;;;;;2.17;2.00;;;17.00;99.40;;;;;;5131224;27;20487;-64
2022/06/09 07:49:33;;;;;;;1.60;1.10;;;17.10;99.90;;;;;;5144907;27;20499;-64
2022/06/09 07:52:04;;;;;;;1.77;0.90;;;17.10;99.90;;;;;;5128723;27;20462;-65
2022/06/09 07:54:36;;;;;;;2.27;1.70;;;17.10;99.90;;;;;;5133962;27;20435;-65
2022/06/09 07:57:08;;;;;;;1.40;0.97;;;17.10;99.90;;;;;;5144460;27;20434;-64
2022/06/09 07:59:40;;;;;;;1.73;1.00;;;17.00;99.10;;;;;;5145103;27;20430;-63
2022/06/09 08:02:14;;;;;;;1.30;1.00;;;17.00;98.60;;;;;;5144901;27;20531;-63
2022/06/09 08:04:45;;;;;;;1.43;1.00;;;17.00;98.60;;;;;;5142461;27;20539;-63
2022/06/09 08:07:15;;;;;;;5.70;0.90;;;17.00;99.90;;;;;;5143438;27;20434;-63
2022/06/09 08:09:48;;;;;;;2.03;1.30;;;17.00;99.90;;;;;;5142569;27;20511;-63
2022/06/09 08:12:21;;;;;;;1.33;1.07;;;17.00;99.90;;;;;;5140789;27;20467;-63
2022/06/09 08:14:51;;;;;;;2.00;1.80;;;17.00;99.90;;;;;;5143649;27;20461;-62
2022/06/09 08:17:22;;;;;;;1.07;0.97;;;17.00;99.90;;;;;;5128623;27;20462;-63
2022/06/09 08:19:53;;;;;;;2.90;1.10;;;17.00;99.90;;;;;;5128540;27;20453;-62
2022/06/09 08:22:24;;;;;;;0.93;0.87;;;16.90;99.90;;;;;;5143759;27;20942;-62
2022/06/09 08:24:57;;;;;;;1.47;1.00;;;16.80;99.90;;;;;;5135705;27;20454;-63
2022/06/09 08:27:28;;;;;;;1.50;1.30;;;16.70;99.90;;;;;;5141473;27;20414;-62
2022/06/09 08:29:58;;;;;;;1.00;0.90;;;16.60;99.90;;;;;;5143438;27;20465;-62
2022/06/09 08:32:29;;;;;;;3.30;1.60;;;16.50;99.90;;;;;;5144737;27;20455;-62
2022/06/09 08:35:00;;;;;;;1.70;1.20;;;16.40;99.90;;;;;;5138246;27;20451;-62
2022/06/09 08:37:31;;;;;;;0.93;0.70;;;16.30;99.90;;;;;;5141408;27;20453;-62
2022/06/09 08:40:05;;;;;;;3.40;1.10;;;16.30;99.90;;;;;;5142210;27;20427;-63
2022/06/09 08:42:50;;;;;;;0.80;0.80;;;16.20;99.90;;;;;;5142986;27;20468;-62
2022/06/09 08:45:29;;;;;;;1.63;0.97;;;16.20;99.90;;;;;;5133658;27;20457;-62
2022/06/09 08:48:02;;;;;;;4.00;1.60;;;16.30;99.90;;;;;;5142606;27;20532;-62
2022/06/09 08:50:35;;;;;;;1.93;1.33;;;16.20;99.90;;;;;;5138098;27;20503;-62
2022/06/09 08:53:16;;;;;;;2.83;1.13;;;16.10;99.90;;;;;;5131434;27;20471;-62
2022/06/09 08:55:51;;;;;;;3.87;1.00;;;16.00;99.90;;;;;;5132765;27;20448;-63
2022/06/09 08:58:33;;;;;;;2.07;1.27;;;15.90;99.90;;;;;;5124740;27;20459;-63
2022/06/09 09:01:08;;;;;;;1.10;0.83;;;15.80;99.90;;;;;;5140339;27;20448;-62
2022/06/09 09:03:42;;;;;;;1.30;0.90;;;15.70;99.90;;;;;;5138967;27;20524;-63
2022/06/09 09:06:23;;;;;;;0.90;0.90;;;15.60;99.90;;;;;;5139238;27;20468;-63
2022/06/09 09:09:08;;;;;;;1.47;1.03;;;15.60;99.90;;;;;;5140685;27;20460;-63
2022/06/09 09:11:52;;;;;;;1.93;0.93;;;15.50;99.90;;;;;;5141056;27;20468;-63
2022/06/09 09:14:28;;;;;;;1.20;0.80;;;15.50;99.90;;;;;;5143322;27;20548;-63
2022/06/09 09:17:06;;;;;;;1.97;1.20;;;15.50;99.90;;;;;;5141177;27;20918;-63
2022/06/09 09:19:45;;;;;;;0.97;0.93;;;15.50;99.90;;;;;;5141442;27;20452;-63
2022/06/09 09:22:24;;;;;;;2.10;1.50;;;15.60;99.90;;;;;;5142230;27;20522;-63
2022/06/09 09:25:06;;;;;;;1.30;0.90;;;15.70;99.90;;;;;;5135378;27;20480;-63
2022/06/09 09:27:54;;;;;;;2.50;0.87;;;15.80;99.90;;;;;;5135458;27;20559;-62
2022/06/09 09:30:52;;;;;;;3.03;1.17;;;15.80;99.90;;;;;;5140675;27;20922;-62
2022/06/09 09:33:23;;;;;;;2.47;1.13;;;15.80;99.90;;;;;;5130170;27;20471;-63
2022/06/09 09:35:59;;;;;;;2.10;1.17;;;15.90;99.90;;;;;;5130251;27;20450;-62
2022/06/09 09:38:40;;;;;;;1.67;1.17;;;15.90;99.90;;;;;;5140342;27;20465;-63
2022/06/09 09:41:27;;;;;;;1.20;0.87;;;15.90;99.90;;;;;;5130778;27;20460;-63
2022/06/09 09:44:00;;;;;;;1.70;1.20;;;15.90;99.90;;;;;;5142706;27;20473;-63
2022/06/09 09:46:35;;;;;;;1.27;0.67;;;15.90;99.90;;;;;;5135966;27;20608;-63
2022/06/09 09:49:15;;;;;;;3.40;1.00;;;15.90;99.90;;;;;;5132099;27;20519;-63
2022/06/09 09:51:57;;;;;;;1.67;1.20;;;16.00;99.90;;;;;;5136020;27;20455;-63
2022/06/09 09:57:28;;;;;;;0.87;0.87;;;16.10;99.90;;;;;;5139963;27;20427;-63
2022/06/09 10:00:01;;;;;;;1.43;0.97;;;16.00;99.90;;;;;;5139154;27;20439;-63
2022/06/09 10:08:40;;;;;;;1.80;1.13;;;16.10;99.90;;;;;;5133147;27;20446;-64
2022/06/09 10:14:42;;;;;;;1.80;0.80;;;16.10;99.90;;;;;;5140589;27;20479;-64
2022/06/09 10:17:39;;;;;;;4.07;1.10;;;16.00;99.90;;;;;;5129617;27;20463;-63
2022/06/09 10:20:36;;;;;;;1.30;0.90;;;16.00;99.90;;;;;;5139393;27;20437;-64
2022/06/09 10:23:36;;;;;;;1.47;0.80;;;16.00;99.90;;;;;;5133468;27;20456;-63
2022/06/09 10:26:13;;;;;;;1.00;0.90;;;16.00;99.90;;;;;;5137817;27;20439;-63
2022/06/09 10:28:55;;;;;;;1.07;0.70;;;16.00;99.90;;;;;;5139760;27;20894;-63
2022/06/09 10:31:41;;;;;;;1.07;0.80;;;16.00;99.90;;;;;;5129038;27;20467;-63
2022/06/09 10:34:37;;;;;;;1.33;0.97;;;16.00;99.90;;;;;;5141237;27;20458;-63
2022/06/09 10:37:18;;;;;;;0.90;0.80;;;15.90;99.90;;;;;;5130428;28;20435;-63
2022/06/09 10:39:57;;;;;;;4.60;1.37;;;15.90;99.90;;;;;;5139362;27;20456;-63
2022/06/09 10:42:32;;;;;;;2.30;1.27;;;15.90;99.90;;;;;;5128768;27;20465;-63
2022/06/09 10:45:18;;;;;;;2.43;1.40;;;15.90;99.90;;;;;;5140254;28;20574;-64
2022/06/09 10:56:54;;;;;;;1.20;0.83;;;15.90;99.90;;;;;;5092924;28;20483;-63
2022/06/09 10:59:32;;;;;;;1.87;1.10;;;15.90;99.90;;;;;;5140017;27;21634;-63
2022/06/09 11:02:04;;;;;;;1.23;0.90;;;15.90;99.90;;;;;;5135867;28;20465;-63
2022/06/09 11:04:37;;;;;;;1.20;1.10;;;15.80;99.90;;;;;;5140848;27;20492;-63
2022/06/09 11:07:29;;;;;;;1.03;0.90;;;15.90;99.90;;;;;;5136347;28;20452;-63
2022/06/09 11:10:13;;;;;;;0.87;0.77;;;15.90;99.90;;;;;;5138835;27;20461;-63
2022/06/09 11:12:57;;;;;;;1.97;1.20;;;15.90;99.90;;;;;;5133471;27;20454;-63
2022/06/09 11:15:38;;;;;;;1.57;1.10;;;15.90;99.90;;;;;;5135050;28;20466;-63
2022/06/09 11:18:22;;;;;;;0.97;0.87;;;15.90;99.90;;;;;;5134168;27;20449;-63
2022/06/09 11:21:09;;;;;;;1.60;1.10;;;16.00;99.90;;;;;;5133786;28;20452;-63
2022/06/09 11:24:06;;;;;;;1.27;0.80;;;16.00;99.90;;;;;;5138517;27;20439;-63
2022/06/09 11:26:46;;;;;;;2.43;0.90;;;15.90;99.90;;;;;;5137564;28;20955;-63
2022/06/09 11:29:42;;;;;;;2.63;1.17;;;15.90;99.90;;;;;;5139626;27;20431;-63
2022/06/09 11:32:17;;;;;;;1.27;1.17;;;15.90;99.90;;;;;;5143801;27;20493;-63
2022/06/09 11:35:04;;;;;;;2.10;1.17;;;15.90;99.90;;;;;;5140353;27;20544;-64
2022/06/09 11:37:50;;;;;;;1.33;1.07;;;15.90;99.90;;;;;;5139557;27;20490;-63
2022/06/09 11:40:32;;;;;;;2.33;1.00;;;15.80;99.90;;;;;;5140956;27;20475;-63
2022/06/09 11:43:30;;;;;;;1.30;1.00;;;15.80;99.90;;;;;;5139955;27;20535;-63
2022/06/09 11:46:02;;;;;;;1.10;1.00;;;15.90;99.90;;;;;;5134813;27;20554;-63
2022/06/09 11:48:38;;;;;;;1.63;1.53;;;15.90;99.90;;;;;;5139841;27;20431;-63
2022/06/09 11:51:10;;;;;;;2.73;1.40;;;15.80;99.90;;;;;;5141791;27;20461;-63
2022/06/09 11:53:48;;;;;;;2.07;1.10;;;15.80;99.90;;;;;;5135805;27;20899;-63
2022/06/09 11:56:36;;;;;;;1.93;1.10;;;15.80;99.90;;;;;;5135619;27;20464;-63
2022/06/09 11:59:18;;;;;;;1.30;1.20;;;15.80;99.90;;;;;;5142431;27;20465;-63
2022/06/09 12:02:32;;;;;;;1.70;0.87;;;15.80;99.90;;;;;;5144234;27;20527;-63
2022/06/09 12:05:24;;;;;;;2.00;1.00;;;15.80;99.90;;;;;;5140926;27;20487;-63
2022/06/09 12:08:14;;;;;;;2.20;1.30;;;15.70;99.90;;;;;;5143717;27;20439;-62
2022/06/09 12:11:08;;;;;;;2.87;0.97;;;15.70;99.90;;;;;;5134825;27;20452;-62
2022/06/09 12:13:56;;;;;;;1.60;1.50;;;15.60;99.90;;;;;;5136049;27;20465;-63
2022/06/09 12:16:31;;;;;;;1.50;1.00;;;15.60;99.90;;;;;;5139368;27;20452;-63
2022/06/09 12:19:20;;;;;;;2.73;1.00;;;15.50;99.90;;;;;;5133672;27;20444;-62
2022/06/09 12:21:55;;;;;;;1.73;1.63;;;15.50;99.90;;;;;;5143180;27;20456;-62
2022/06/09 12:24:35;;;;;;;3.40;1.80;;;15.50;99.90;;;;;;5137784;27;20553;-62
2022/06/09 12:27:23;;;;;;;3.13;1.67;;;15.50;99.90;;;;;;5135344;27;20543;-63
2022/06/09 12:30:26;;;;;;;1.40;1.13;;;15.50;99.90;;;;;;5141317;27;20456;-62
2022/06/09 12:33:32;;;;;;;2.63;1.57;;;15.50;99.90;;;;;;5130316;27;20471;-63
2022/06/09 12:36:07;;;;;;;1.20;1.10;;;15.50;99.90;;;;;;5144962;27;20423;-63
2022/06/09 12:38:42;;;;;;;1.47;1.23;;;15.50;99.90;;;;;;5139114;27;20805;-63
2022/06/09 12:41:23;;;;;;;2.50;1.40;;;15.50;99.90;;;;;;5144509;27;20419;-63
2022/06/09 12:44:04;;;;;;;2.27;1.60;;;15.50;99.90;;;;;;5141595;27;20540;-63
2022/06/09 12:46:42;;;;;;;1.17;1.07;;;15.60;99.90;;;;;;5145057;27;20460;-63
2022/06/09 12:49:24;;;;;;;1.57;1.30;;;15.60;99.90;;;;;;5134933;27;20438;-63
2022/06/09 12:51:55;;;;;;;1.37;1.27;;;15.60;99.90;;;;;;5135428;27;20954;-63
2022/06/09 12:54:34;;;;;;;3.17;1.37;;;15.60;99.90;;;;;;5139731;27;20480;-63
2022/06/09 12:57:08;;;;;;;2.57;1.80;;;15.70;99.90;;;;;;5136452;27;20433;-62
2022/06/09 12:59:40;;;;;;;1.67;1.57;;;15.80;99.90;;;;;;5141833;27;20456;-63
2022/06/09 13:02:28;;;;;;;1.93;1.67;;;15.80;99.90;;;;;;5139853;27;20486;-63
2022/06/09 13:05:03;;;;;;;1.37;1.27;;;15.90;99.90;;;;;;5141534;27;20450;-63
2022/06/09 13:07:41;;;;;;;1.77;1.67;;;16.00;99.90;;;;;;5139445;27;20421;-62
2022/06/09 13:10:22;;;;;;;2.70;1.77;;;15.90;99.90;;;;;;5133256;27;20518;-62
2022/06/09 13:12:58;;;;;;;2.83;1.70;;;15.90;99.90;;;;;;5142738;27;20468;-63
2022/06/09 13:15:37;;;;;;;2.17;1.57;;;15.90;99.90;;;;;;5133617;27;20471;-62
2022/06/09 13:18:19;;;;;;;1.70;1.60;;;15.90;99.90;;;;;;5141823;27;20449;-62
2022/06/09 13:20:54;;;;;;;1.47;1.37;;;16.10;99.90;;;;;;5142141;27;20419;-62
2022/06/09 13:23:25;;;;;;;1.27;1.17;;;16.20;99.90;;;;;;5139486;27;20452;-62
2022/06/09 13:25:56;;;;;;;1.80;1.37;;;16.30;99.90;;;;;;5143079;27;20490;-60
2022/06/09 13:28:34;;;;;;;1.37;1.27;;;16.40;99.90;;;;;;5141587;27;20464;-61
2022/06/09 13:31:25;;;;;;;1.87;1.60;;;16.50;99.90;;;;;;5129570;27;20461;-62
2022/06/09 13:34:01;;;;;;;1.50;1.40;;;16.60;99.90;;;;;;5130283;27;20455;-62
2022/06/09 13:36:35;;;;;;;3.83;1.43;;;16.70;99.90;;;;;;5143296;27;20493;-62
2022/06/09 13:39:25;;;;;;;3.37;1.70;;;16.70;99.90;;;;;;5131518;27;20556;-62
2022/06/09 13:42:05;;;;;;;1.90;1.40;;;16.80;99.90;;;;;;5123923;27;20432;-62
2022/06/09 13:44:39;;;;;;;1.73;1.60;;;16.80;99.90;;;;;;5141527;27;20464;-62
2022/06/09 13:47:17;;;;;;;2.00;1.37;;;16.80;99.90;;;;;;5135480;27;20515;-62
2022/06/09 13:50:03;;;;;;;1.87;1.60;;;16.80;99.90;;;;;;5140911;27;20427;-63
2022/06/09 13:52:38;;;;;;;1.40;1.30;;;16.80;99.90;;;;;;5137198;27;20492;-62
2022/06/09 13:55:13;;;;;;;1.47;1.37;;;16.60;99.90;;;;;;5132951;27;20487;-62
2022/06/09 13:57:45;;;;;;;1.20;1.10;;;16.70;99.90;;;;;;5142142;27;20460;-62
2022/06/09 14:00:21;;;;;;;2.50;1.70;;;16.80;99.90;;;;;;5131479;27;20440;-62
2022/06/09 14:03:02;;;;;;;1.90;1.10;;;16.90;99.90;;;;;;5134655;27;20449;-62
2022/06/09 14:05:39;;;;;;;3.93;1.80;;;16.80;99.90;;;;;;5150601;27;20483;-64